createdAt,value
2022-11-03T00:02:10.907Z,67.08
2022-11-03T00:04:38.191Z,66.77
2022-11-03T00:07:05.205Z,67.09
2022-11-03T00:09:32.433Z,66.83
2022-11-03T00:11:59.460Z,67.11
2022-11-03T00:14:26.231Z,66.70
2022-11-03T00:16:54.044Z,66.88
2022-11-03T00:19:21.087Z,66.91
2022-11-03T00:21:48.361Z,67.51
2022-11-03T00:24:15.167Z,67.20
2022-11-03T00:26:42.325Z,68.02
2022-11-03T00:29:14.306Z,67.92
2022-11-03T00:31:44.528Z,67.97
2022-11-03T00:34:12.598Z,68.03
2022-11-03T00:36:43.405Z,68.13
2022-11-03T00:39:11.190Z,68.74
2022-11-03T00:41:39.401Z,67.80
2022-11-03T00:44:06.360Z,67.39
2022-11-03T00:46:35.671Z,67.48
2022-11-03T00:49:05.230Z,67.95
2022-11-03T00:51:34.425Z,67.96
2022-11-03T00:54:04.589Z,68.38
2022-11-03T00:56:37.692Z,68.43
2022-11-03T00:59:07.344Z,68.55
2022-11-03T01:01:47.519Z,68.79
2022-11-03T01:04:36.159Z,68.60
2022-11-03T01:07:05.831Z,68.80
2022-11-03T01:09:39.772Z,68.70
2022-11-03T01:12:14.320Z,68.67
2022-11-03T01:14:51.684Z,68.23
2022-11-03T01:17:25.268Z,68.59
2022-11-03T01:19:53.549Z,68.43
2022-11-03T01:22:23.011Z,67.98
2022-11-03T01:24:51.778Z,68.63
2022-11-03T01:27:22.471Z,68.40
2022-11-03T01:29:49.344Z,68.24
2022-11-03T01:32:16.801Z,68.55
2022-11-03T01:34:43.698Z,68.46
2022-11-03T01:37:10.795Z,68.69
2022-11-03T01:39:37.855Z,69.11
2022-11-03T01:42:05.000Z,69.48
2022-11-03T01:44:47.688Z,68.85
2022-11-03T01:47:35.886Z,69.16
2022-11-03T01:50:12.367Z,69.69
2022-11-03T01:52:58.097Z,70.07
2022-11-03T01:55:29.556Z,69.74
2022-11-03T01:58:10.936Z,70.05
2022-11-03T02:00:39.778Z,70.23
2022-11-03T02:03:07.256Z,70.39
2022-11-03T02:05:35.233Z,69.79
2022-11-03T02:08:16.699Z,69.89
2022-11-03T02:10:47.843Z,69.37
2022-11-03T02:13:27.529Z,70.12
2022-11-03T02:15:58.614Z,70.54
2022-11-03T02:18:32.055Z,70.03
2022-11-03T02:21:16.064Z,70.10
2022-11-03T02:23:57.707Z,69.75
2022-11-03T02:26:25.318Z,70.60
2022-11-03T02:31:31.305Z,70.97
2022-11-03T02:34:26.625Z,70.77
2022-11-03T02:37:02.179Z,70.77
2022-11-03T02:39:40.780Z,71.00
2022-11-03T02:42:11.522Z,70.76
2022-11-03T02:44:42.270Z,70.56
2022-11-03T02:47:14.837Z,70.21
2022-11-03T02:52:48.733Z,69.99
2022-11-03T02:55:33.091Z,70.28
2022-11-03T02:58:27.490Z,70.17
2022-11-03T03:01:26.932Z,70.68
2022-11-03T03:04:00.176Z,70.32
2022-11-03T03:06:53.304Z,70.62
2022-11-03T03:09:35.421Z,70.46
2022-11-03T03:12:06.596Z,70.90
2022-11-03T03:14:41.962Z,71.42
2022-11-03T03:17:30.314Z,70.67
2022-11-03T03:20:51.089Z,70.44
2022-11-03T03:23:25.866Z,70.79
2022-11-03T03:26:07.899Z,70.98
2022-11-03T03:28:51.860Z,71.22
2022-11-03T03:31:22.354Z,70.67
2022-11-03T03:34:04.368Z,71.33
2022-11-03T03:36:42.081Z,71.19
2022-11-03T03:39:14.248Z,70.89
2022-11-03T03:41:42.180Z,71.30
2022-11-03T03:44:12.717Z,71.36
2022-11-03T03:46:52.439Z,71.47
2022-11-03T03:49:19.844Z,71.79
2022-11-03T03:51:49.328Z,72.22
2022-11-03T03:54:16.492Z,71.62
2022-11-03T03:57:04.163Z,71.03
2022-11-03T03:59:31.693Z,71.42
2022-11-03T04:01:59.271Z,71.54
2022-11-03T04:04:26.492Z,71.85
2022-11-03T04:07:13.528Z,70.86
2022-11-03T04:09:40.365Z,71.14
2022-11-03T04:12:27.902Z,70.80
2022-11-03T04:15:13.950Z,70.94
2022-11-03T04:18:04.984Z,70.61
2022-11-03T04:20:51.644Z,70.87
2022-11-03T04:23:19.953Z,70.70
2022-11-03T04:25:56.082Z,71.09
2022-11-03T04:28:25.788Z,70.74
2022-11-03T04:30:58.725Z,71.76
2022-11-03T04:33:28.220Z,71.71
2022-11-03T04:35:59.533Z,71.52
2022-11-03T04:38:29.341Z,71.30
2022-11-03T04:40:58.846Z,71.96
2022-11-03T04:43:37.051Z,71.74
2022-11-03T04:46:05.524Z,71.68
2022-11-03T04:48:34.964Z,72.59
2022-11-03T04:51:14.950Z,72.04
2022-11-03T04:53:50.562Z,72.54
2022-11-03T04:56:22.978Z,73.20
2022-11-03T04:58:50.194Z,73.12
2022-11-03T05:01:24.464Z,73.48
2022-11-03T05:03:54.891Z,73.03
2022-11-03T05:06:26.599Z,73.69
2022-11-03T05:09:00.463Z,73.02
2022-11-03T05:11:38.992Z,72.62
2022-11-03T05:14:28.109Z,72.72
2022-11-03T05:16:56.024Z,72.68
2022-11-03T05:19:35.627Z,72.65
2022-11-03T05:22:04.918Z,72.70
2022-11-03T05:24:33.559Z,73.30
2022-11-03T05:27:00.693Z,72.58
2022-11-03T05:29:37.479Z,72.27
2022-11-03T05:32:21.677Z,72.75
2022-11-03T05:34:55.227Z,72.88
2022-11-03T05:37:34.108Z,72.60
2022-11-03T05:40:26.956Z,73.45
2022-11-03T05:43:03.070Z,73.48
2022-11-03T05:45:34.802Z,72.78
2022-11-03T05:48:06.736Z,73.10
2022-11-03T05:50:35.551Z,73.19
2022-11-03T05:53:38.446Z,72.70
2022-11-03T05:56:10.791Z,73.63
2022-11-03T05:58:43.087Z,73.41
2022-11-03T06:01:36.133Z,74.82
2022-11-03T06:04:36.855Z,74.61
2022-11-03T06:07:20.100Z,74.84
2022-11-03T06:09:47.088Z,74.48
2022-11-03T06:12:20.822Z,74.90
2022-11-03T06:14:49.118Z,74.63
2022-11-03T06:17:27.668Z,75.19
2022-11-03T06:19:58.724Z,75.33
2022-11-03T06:22:35.180Z,74.81
2022-11-03T06:25:23.944Z,75.90
2022-11-03T06:27:53.346Z,76.08
2022-11-03T06:30:29.662Z,75.70
2022-11-03T06:33:04.480Z,75.90
2022-11-03T06:35:31.502Z,75.49
2022-11-03T06:38:00.161Z,74.27
2022-11-03T06:40:35.926Z,74.65
2022-11-03T06:43:42.882Z,74.84
2022-11-03T06:46:20.398Z,74.28
2022-11-03T06:48:47.659Z,74.70
2022-11-03T06:51:30.153Z,75.08
2022-11-03T06:54:01.951Z,74.70
2022-11-03T06:56:36.962Z,74.50
2022-11-03T06:59:08.792Z,74.02
2022-11-03T07:01:35.918Z,73.33
2022-11-03T07:04:29.699Z,73.58
2022-11-03T07:07:02.675Z,73.70
2022-11-03T07:09:29.873Z,73.70
2022-11-03T07:12:00.995Z,73.73
2022-11-03T07:14:31.661Z,73.54
2022-11-03T07:17:09.206Z,73.27
2022-11-03T07:19:45.625Z,73.35
2022-11-03T07:22:27.308Z,73.26
2022-11-03T07:25:01.129Z,73.14
2022-11-03T07:27:33.198Z,73.24
2022-11-03T07:30:35.037Z,73.54
2022-11-03T07:33:14.817Z,73.34
2022-11-03T07:36:13.680Z,73.59
2022-11-03T07:38:33.546Z,73.57
2022-11-03T07:41:01.070Z,73.39
2022-11-03T07:43:36.746Z,73.10
2022-11-03T07:46:05.890Z,72.62
2022-11-03T07:48:46.354Z,73.72
2022-11-03T07:51:38.202Z,72.99
2022-11-03T07:54:23.852Z,72.64
2022-11-03T07:56:57.021Z,72.20
2022-11-03T07:59:29.363Z,72.38
2022-11-03T08:01:58.971Z,72.21
2022-11-03T08:04:35.578Z,72.36
2022-11-03T08:07:02.729Z,72.25
2022-11-03T08:09:29.623Z,72.18
2022-11-03T08:11:56.713Z,71.97
2022-11-03T08:14:23.672Z,71.63
2022-11-03T08:16:50.747Z,71.37
2022-11-03T08:19:17.866Z,70.94
2022-11-03T08:21:45.571Z,71.18
2022-11-03T08:24:12.499Z,71.35
2022-11-03T08:26:39.853Z,71.43
2022-11-03T08:29:06.638Z,71.32
2022-11-03T08:31:33.769Z,71.19
2022-11-03T08:34:00.633Z,72.06
2022-11-03T08:36:28.065Z,71.92
2022-11-03T08:38:54.958Z,71.38
2022-11-03T08:41:22.301Z,70.77
2022-11-03T08:43:49.080Z,71.16
2022-11-03T08:46:18.146Z,70.80
2022-11-03T08:48:46.486Z,71.34
2022-11-03T08:51:15.633Z,70.71
2022-11-03T08:53:43.260Z,70.58
2022-11-03T08:56:13.692Z,70.87
2022-11-03T08:58:47.199Z,70.93
2022-11-03T09:01:14.738Z,70.69
2022-11-03T09:03:42.159Z,70.69
2022-11-03T09:06:09.930Z,70.25
2022-11-03T09:11:23.928Z,69.99
2022-11-03T09:13:51.484Z,69.65
2022-11-03T09:16:19.395Z,69.47
2022-11-03T09:18:46.744Z,69.42
2022-11-03T09:21:15.146Z,69.49
2022-11-03T09:23:42.106Z,69.44
2022-11-03T09:26:09.280Z,69.15
2022-11-03T09:28:36.054Z,69.07
2022-11-03T09:31:03.170Z,69.37
2022-11-03T09:33:30.332Z,69.19
2022-11-03T09:35:57.684Z,69.03
2022-11-03T09:38:24.639Z,68.83
2022-11-03T09:40:52.084Z,68.68
2022-11-03T09:43:19.575Z,69.17
2022-11-03T09:45:46.661Z,69.00
2022-11-03T09:48:14.197Z,68.50
2022-11-03T09:50:41.495Z,68.39
2022-11-03T09:53:12.530Z,68.59
2022-11-03T09:55:40.080Z,68.13
2022-11-03T09:58:17.492Z,67.82
2022-11-03T10:00:46.053Z,67.69
2022-11-03T10:03:17.174Z,67.70
2022-11-03T10:05:46.098Z,67.61
2022-11-03T10:08:29.553Z,66.99
2022-11-03T10:10:57.829Z,67.00
2022-11-03T10:13:40.838Z,66.92
2022-11-03T10:16:12.484Z,66.96
2022-11-03T10:18:39.353Z,66.81
2022-11-03T10:21:31.046Z,66.66
2022-11-03T10:23:57.860Z,66.48
2022-11-03T10:26:24.966Z,66.36
2022-11-03T10:29:08.973Z,66.61
2022-11-03T10:31:41.934Z,66.84
2022-11-03T10:34:41.168Z,67.07
2022-11-03T10:37:24.414Z,67.12
2022-11-03T10:39:54.924Z,66.87
2022-11-03T10:42:35.305Z,67.17
2022-11-03T10:45:18.757Z,67.22
2022-11-03T10:48:01.805Z,66.57
2022-11-03T10:50:29.234Z,66.80
2022-11-03T10:52:57.557Z,66.36
2022-11-03T10:55:26.222Z,66.10
2022-11-03T10:57:58.332Z,65.98
2022-11-03T11:00:25.772Z,66.19
2022-11-03T11:03:00.937Z,66.39
2022-11-03T11:05:28.380Z,66.25
2022-11-03T11:07:56.253Z,66.31
2022-11-03T11:10:31.312Z,65.98
2022-11-03T11:13:26.323Z,66.22
2022-11-03T11:16:02.052Z,66.04
2022-11-03T11:18:29.116Z,65.93
2022-11-03T11:20:57.635Z,66.05
2022-11-03T11:23:27.402Z,66.24
2022-11-03T11:26:09.845Z,65.65
2022-11-03T11:29:01.330Z,66.07
2022-11-03T11:31:34.011Z,65.64
2022-11-03T11:34:17.044Z,66.01
2022-11-03T11:36:55.574Z,65.92
2022-11-03T11:39:28.928Z,65.99
2022-11-03T11:42:09.092Z,65.65
2022-11-03T11:44:54.812Z,66.09
2022-11-03T11:47:34.324Z,65.69
2022-11-03T11:50:13.030Z,65.75
2022-11-03T11:53:09.998Z,65.62
2022-11-03T11:55:50.704Z,65.70
2022-11-03T11:58:49.320Z,65.74
2022-11-03T12:01:29.810Z,66.10
2022-11-03T12:09:28.286Z,66.09
2022-11-03T12:12:00.790Z,65.67
2022-11-03T12:14:39.544Z,65.84
2022-11-03T12:17:18.785Z,65.65
2022-11-03T12:19:50.973Z,65.67
2022-11-03T12:22:23.769Z,65.71
2022-11-03T12:24:55.579Z,65.41
2022-11-03T12:27:25.535Z,65.33
2022-11-03T12:29:58.534Z,65.39
2022-11-03T12:32:33.868Z,65.29
2022-11-03T12:35:09.109Z,65.13
2022-11-03T12:37:37.480Z,65.17
2022-11-03T12:40:06.046Z,64.88
2022-11-03T12:42:32.913Z,64.67
2022-11-03T12:44:59.911Z,64.69
2022-11-03T12:47:27.045Z,64.54
2022-11-03T12:49:53.862Z,64.63
2022-11-03T12:52:20.930Z,64.32
2022-11-03T12:54:47.735Z,64.32
2022-11-03T12:57:14.935Z,64.43
2022-11-03T12:59:41.762Z,64.46
2022-11-03T13:02:10.910Z,64.26
2022-11-03T13:04:38.356Z,64.33
2022-11-03T13:07:05.540Z,64.17
2022-11-03T13:09:32.425Z,63.90
2022-11-03T13:12:18.208Z,64.37
2022-11-03T13:14:46.324Z,64.66
2022-11-03T13:17:16.111Z,64.46
2022-11-03T13:19:42.944Z,64.32
2022-11-03T13:22:10.571Z,64.43
2022-11-03T13:24:37.984Z,64.24
2022-11-03T13:27:05.124Z,64.35
2022-11-03T13:29:35.394Z,64.28
2022-11-03T13:32:06.736Z,64.14
2022-11-03T13:34:36.508Z,64.08
2022-11-03T13:37:08.341Z,63.92
2022-11-03T13:39:37.664Z,64.50
2022-11-03T13:42:10.090Z,64.30
2022-11-03T13:44:39.267Z,64.26
2022-11-03T13:47:11.686Z,64.33
2022-11-03T13:52:28.852Z,64.15
2022-11-03T14:00:36.511Z,64.45
2022-11-03T14:05:53.856Z,64.49
2022-11-03T14:08:22.486Z,64.73
2022-11-03T14:10:49.446Z,64.44
2022-11-03T14:13:16.680Z,64.61
2022-11-03T14:15:43.580Z,64.61
2022-11-03T14:18:10.649Z,64.78
2022-11-03T14:20:37.596Z,64.78
2022-11-03T14:23:04.922Z,64.88
2022-11-03T14:25:32.001Z,64.55
2022-11-03T14:27:59.197Z,64.99
2022-11-03T14:30:26.252Z,65.01
2022-11-03T14:32:58.385Z,64.90
2022-11-03T14:35:26.551Z,65.30
2022-11-03T14:37:53.845Z,65.20
2022-11-03T14:40:39.167Z,65.52
2022-11-03T14:43:06.574Z,65.41
2022-11-03T14:45:35.866Z,65.44
2022-11-03T14:48:05.640Z,65.55
2022-11-03T14:50:33.088Z,65.62
2022-11-03T14:53:00.121Z,65.69
2022-11-03T14:55:27.410Z,65.89
2022-11-03T14:57:54.661Z,65.80
2022-11-03T15:00:22.207Z,65.68
2022-11-03T15:02:49.013Z,65.64
2022-11-03T15:05:36.468Z,65.86
2022-11-03T15:08:03.470Z,65.69
2022-11-03T15:10:30.665Z,66.32
2022-11-03T15:12:57.462Z,66.11
2022-11-03T15:15:24.658Z,66.50
2022-11-03T15:17:51.968Z,66.21
2022-11-03T15:20:18.762Z,66.53
2022-11-03T15:25:36.332Z,66.80
2022-11-03T15:28:03.483Z,67.10
2022-11-03T15:30:30.612Z,67.37
2022-11-03T15:32:57.778Z,67.58
2022-11-03T15:35:25.317Z,67.78
2022-11-03T15:37:53.837Z,67.56
2022-11-03T15:40:21.389Z,68.10
2022-11-03T15:42:48.466Z,68.06
2022-11-03T15:45:15.833Z,68.79
2022-11-03T15:47:42.813Z,68.28
2022-11-03T15:50:12.154Z,68.65
2022-11-03T15:52:39.110Z,68.67
2022-11-03T15:55:07.920Z,69.13
2022-11-03T15:57:35.163Z,69.27
2022-11-03T16:00:03.799Z,69.08
2022-11-03T16:02:46.284Z,69.25
2022-11-03T16:05:14.983Z,69.56
2022-11-03T16:07:41.991Z,68.61
2022-11-03T16:10:09.426Z,68.69
2022-11-03T16:12:37.513Z,68.48
2022-11-03T16:15:04.934Z,68.96
2022-11-03T16:17:32.071Z,69.04
2022-11-03T16:19:58.881Z,69.11
2022-11-03T16:22:26.132Z,69.08
2022-11-03T16:24:52.939Z,69.56
2022-11-03T16:27:20.199Z,69.66
2022-11-03T16:29:47.078Z,69.28
2022-11-03T16:32:14.312Z,69.55
2022-11-03T16:34:41.230Z,69.20
2022-11-03T16:37:08.465Z,69.34
2022-11-03T16:39:35.290Z,69.42
2022-11-03T16:42:03.349Z,70.15
2022-11-03T16:44:30.437Z,69.71
2022-11-03T16:46:57.838Z,69.95
2022-11-03T16:49:24.737Z,70.29
2022-11-03T16:51:52.278Z,70.40
2022-11-03T16:54:19.317Z,70.25
2022-11-03T16:56:50.585Z,70.10
2022-11-03T16:59:23.482Z,70.67
2022-11-03T17:01:50.897Z,69.93
2022-11-03T17:04:18.039Z,70.26
2022-11-03T17:06:53.375Z,70.26
2022-11-03T17:09:21.120Z,70.52
2022-11-03T17:11:48.345Z,70.92
2022-11-03T17:14:15.605Z,71.00
2022-11-03T17:16:45.668Z,70.96
2022-11-03T17:19:14.100Z,70.82
2022-11-03T17:21:41.695Z,71.30
2022-11-03T17:24:11.384Z,70.81
2022-11-03T17:27:05.380Z,71.11
2022-11-03T17:29:40.679Z,71.30
2022-11-03T17:32:21.298Z,71.40
2022-11-03T17:34:48.255Z,71.91
2022-11-03T17:37:15.613Z,71.73
2022-11-03T17:39:43.295Z,71.42
2022-11-03T17:42:26.874Z,71.38
2022-11-03T17:44:57.009Z,71.71
2022-11-03T17:47:24.819Z,71.37
2022-11-03T17:49:52.240Z,71.81
2022-11-03T17:52:29.059Z,71.67
2022-11-03T17:55:03.134Z,72.11
2022-11-03T17:57:30.545Z,72.44
2022-11-03T18:00:02.684Z,72.71
2022-11-03T18:02:34.570Z,72.75
2022-11-03T18:05:20.424Z,72.64
2022-11-03T18:07:50.704Z,72.32
2022-11-03T18:10:17.876Z,72.85
2022-11-03T18:13:10.063Z,72.77
2022-11-03T18:15:39.731Z,72.90
2022-11-03T18:18:36.569Z,72.36
2022-11-03T18:21:04.810Z,72.44
2022-11-03T18:23:35.016Z,72.46
2022-11-03T18:26:10.261Z,72.27
2022-11-03T18:28:37.496Z,72.84
2022-11-03T18:31:18.901Z,72.43
2022-11-03T18:33:47.012Z,73.06
2022-11-03T18:36:15.756Z,72.54
2022-11-03T18:38:45.263Z,72.59
2022-11-03T18:41:40.380Z,72.86
2022-11-03T18:44:17.631Z,73.37
2022-11-03T18:46:45.576Z,73.48
2022-11-03T18:49:12.972Z,73.56
2022-11-03T18:51:48.016Z,73.38
2022-11-03T18:56:47.738Z,73.87
2022-11-03T18:59:29.349Z,73.81
2022-11-03T19:01:57.907Z,73.60
2022-11-03T19:04:25.391Z,73.67
2022-11-03T19:06:53.153Z,73.45
2022-11-03T19:09:26.177Z,73.08
2022-11-03T19:11:58.284Z,73.23
2022-11-03T19:14:32.722Z,73.31
2022-11-03T19:19:53.226Z,73.47
2022-11-03T19:22:23.201Z,72.86
2022-11-03T19:24:50.537Z,73.26
2022-11-03T19:27:25.997Z,73.17
2022-11-03T19:29:56.016Z,73.09
2022-11-03T19:32:32.460Z,73.00
2022-11-03T19:35:14.463Z,72.54
2022-11-03T19:37:42.385Z,72.79
2022-11-03T19:40:17.577Z,72.60
2022-11-03T19:42:45.824Z,72.66
2022-11-03T19:45:19.325Z,72.96
2022-11-03T19:48:23.687Z,72.58
2022-11-03T19:50:52.390Z,72.53
2022-11-03T19:53:26.183Z,72.52
2022-11-03T19:55:55.770Z,74.12
2022-11-03T19:58:27.022Z,72.85
2022-11-03T20:00:55.838Z,73.06
2022-11-03T20:03:25.053Z,73.04
2022-11-03T20:05:57.875Z,72.93
2022-11-03T20:08:29.550Z,72.60
2022-11-03T20:10:56.774Z,72.67
2022-11-03T20:13:28.916Z,73.13
2022-11-03T20:16:00.485Z,72.89
2022-11-03T20:18:28.858Z,73.15
2022-11-03T20:20:56.736Z,72.94
2022-11-03T20:23:30.076Z,73.02
2022-11-03T20:25:57.775Z,73.02
2022-11-03T20:28:32.444Z,72.82
2022-11-03T20:31:01.163Z,73.27
2022-11-03T20:33:30.368Z,73.31
2022-11-03T20:35:58.039Z,72.70
2022-11-03T20:38:27.049Z,72.53
2022-11-03T20:40:59.664Z,72.79
2022-11-03T20:43:43.110Z,73.04
2022-11-03T20:46:32.660Z,73.16
2022-11-03T20:49:00.600Z,72.83
2022-11-03T20:51:32.989Z,72.47
2022-11-03T20:54:11.083Z,72.52
2022-11-03T20:56:37.923Z,72.86
2022-11-03T20:59:05.110Z,72.44
2022-11-03T21:01:34.174Z,72.81
2022-11-03T21:04:03.188Z,72.39
2022-11-03T21:06:33.376Z,72.77
2022-11-03T21:09:00.598Z,72.51
2022-11-03T21:11:31.110Z,72.86
2022-11-03T21:14:13.073Z,72.76
2022-11-03T21:16:59.304Z,72.63
2022-11-03T21:19:49.555Z,72.91
2022-11-03T21:25:18.871Z,72.91
2022-11-03T21:27:46.397Z,72.95
2022-11-03T21:30:16.771Z,72.80
2022-11-03T21:32:44.225Z,73.12
2022-11-03T21:35:19.374Z,72.96
2022-11-03T21:37:46.499Z,73.14
2022-11-03T21:40:13.738Z,73.09
2022-11-03T21:42:58.981Z,73.62
2022-11-03T21:45:26.216Z,73.39
2022-11-03T21:48:14.768Z,73.60
2022-11-03T21:50:43.389Z,73.64
2022-11-03T21:53:11.724Z,73.86
2022-11-03T21:55:39.690Z,73.62
2022-11-03T21:58:07.493Z,73.55
2022-11-03T22:00:35.240Z,73.57
2022-11-03T22:03:02.397Z,73.77
2022-11-03T22:05:30.220Z,73.53
2022-11-03T22:07:57.143Z,73.35
2022-11-03T22:10:27.793Z,73.68
2022-11-03T22:12:54.608Z,73.92
2022-11-03T22:15:40.589Z,74.08
2022-11-03T22:18:07.750Z,74.16
2022-11-03T22:20:56.866Z,73.91
2022-11-03T22:23:42.213Z,74.19
2022-11-03T22:26:32.208Z,74.45
2022-11-03T22:29:18.230Z,73.91
2022-11-03T22:31:45.701Z,74.16
2022-11-03T22:34:31.695Z,74.23
2022-11-03T22:36:58.902Z,74.50
2022-11-03T22:39:44.191Z,74.72
2022-11-03T22:42:31.599Z,74.88
2022-11-03T22:45:16.876Z,74.63
2022-11-03T22:47:44.038Z,74.43
2022-11-03T22:50:11.036Z,74.56
2022-11-03T22:52:38.503Z,74.35
2022-11-03T22:55:05.652Z,74.88
2022-11-03T22:57:32.698Z,74.73
2022-11-03T22:59:59.644Z,74.62
2022-11-03T23:02:26.881Z,74.87
2022-11-03T23:04:53.854Z,75.01
2022-11-03T23:07:20.915Z,75.31
2022-11-03T23:09:48.015Z,75.54
2022-11-03T23:12:14.919Z,75.08
2022-11-03T23:15:00.486Z,75.16
2022-11-03T23:17:48.276Z,75.54
2022-11-03T23:20:38.446Z,75.31
2022-11-03T23:23:05.689Z,75.65
2022-11-03T23:25:33.148Z,76.03
2022-11-03T23:28:00.232Z,75.50
2022-11-03T23:30:27.414Z,75.52
2022-11-03T23:32:54.307Z,75.65
2022-11-03T23:35:21.544Z,75.92
2022-11-03T23:37:48.420Z,75.33
2022-11-03T23:40:17.334Z,75.50
2022-11-03T23:42:47.690Z,75.91
2022-11-03T23:45:33.054Z,76.11
2022-11-03T23:48:18.870Z,75.55
2022-11-03T23:50:45.711Z,75.94
2022-11-03T23:53:12.821Z,75.55
2022-11-03T23:55:58.316Z,76.02
2022-11-03T23:58:25.432Z,76.31
